Time;durP1;ratioP1;P1;durP2;ratioP2;P2;SDS_P1;SDS_P2;PMS_P1;PMS_P2;Temp;Humidity;BMP_temperature;BMP_pressure;BME280_temperature;BME280_humidity;BME280_pressure;Samples;Min_cycle;Max_cycle;Signal;HPM_P1;HPM_P2
2024/01/08 10:30:42;;;;;;;7.10;4.53;;;;;;;5.11;45.06;100060.88;5124198;27;20584;-86
2024/01/08 10:33:30;;;;;;;7.07;5.07;;;;;;;6.52;42.67;100060.13;5107591;28;39025;-84
2024/01/08 10:36:38;;;;;;;7.77;4.80;;;;;;;8.52;37.69;100060.97;5089932;28;40958;-84
2024/01/08 10:46:04;;;;;;;6.33;4.37;;;;;;;7.22;37.59;100039.69;5101547;27;40020;-82
2024/01/08 10:48:40;;;;;;;5.50;4.07;;;;;;;8.56;36.82;100061.72;5076936;27;41966;-81
2024/01/08 10:51:09;;;;;;;7.13;4.63;;;;;;;7.92;37.17;100079.66;5093588;27;41651;-85
2024/01/08 10:53:42;;;;;;;6.17;4.30;;;;;;;7.41;38.30;100040.88;5111182;27;41185;-80
2024/01/08 10:56:12;;;;;;;7.53;4.70;;;;;;;7.12;37.82;100044.38;5110308;27;40102;-83
2024/01/08 10:58:49;;;;;;;6.13;4.53;;;;;;;9.30;36.60;100060.75;5113151;27;41642;-81
2024/01/08 11:01:19;;;;;;;7.63;4.97;;;;;;;9.25;35.49;100073.28;5076840;27;43196;-82
2024/01/08 11:03:47;;;;;;;6.17;4.53;;;;;;;8.00;36.52;100050.41;5110927;27;43077;-83
2024/01/08 11:06:16;;;;;;;6.63;4.50;;;;;;;6.65;37.36;100042.22;5110158;27;38766;-81
2024/01/08 11:08:44;;;;;;;6.70;4.33;;;;;;;5.52;38.36;100044.19;5094238;27;41319;-84
2024/01/08 11:11:12;;;;;;;7.20;4.70;;;;;;;4.79;39.97;100020.41;5094088;27;43207;-82
2024/01/08 11:13:42;;;;;;;7.33;4.63;;;;;;;4.19;40.86;100001.50;5093234;27;42560;-84
2024/01/08 11:16:13;;;;;;;9.20;5.53;;;;;;;3.62;42.03;99983.25;5092958;27;38936;-84
2024/01/08 11:18:42;;;;;;;6.60;4.97;;;;;;;3.22;42.76;99972.53;5075361;28;41237;-82
2024/01/08 11:21:10;;;;;;;9.27;5.27;;;;;;;3.03;43.56;99982.41;5072952;28;41940;-82
2024/01/08 11:23:40;;;;;;;7.50;5.33;;;;;;;3.05;44.07;100000.72;5073226;28;41122;-82
2024/01/08 11:26:15;;;;;;;7.90;5.10;;;;;;;2.86;44.62;99994.84;5056540;28;38353;-83
2024/01/08 11:28:42;;;;;;;7.43;4.53;;;;;;;2.47;44.39;99991.00;5073528;28;41698;-83
2024/01/08 11:31:50;;;;;;;7.73;4.43;;;;;;;2.61;44.66;100011.72;5073201;28;41828;-82
2024/01/08 11:34:51;;;;;;;6.50;5.13;;;;;;;2.28;44.83;99982.47;5072390;28;45387;-83
2024/01/08 11:37:38;;;;;;;7.83;5.03;;;;;;;1.98;45.48;99959.31;5072681;28;40248;-82
2024/01/08 11:40:15;;;;;;;11.37;5.40;;;;;;;2.66;45.48;100013.41;5069995;28;40970;-83
2024/01/08 11:42:44;;;;;;;8.47;5.10;;;;;;;2.85;44.34;99982.66;5059034;28;44849;-82
2024/01/08 11:45:12;;;;;;;9.60;5.73;;;;;;;3.61;43.57;100002.47;5058659;28;41712;-82
2024/01/08 11:48:00;;;;;;;7.60;5.40;;;;;;;3.60;43.70;99990.25;5059278;28;39341;-82
2024/01/08 11:50:29;;;;;;;8.37;5.60;;;;;;;3.52;43.63;99977.28;5074721;28;42940;-82
2024/01/08 11:53:01;;;;;;;7.33;5.10;;;;;;;4.13;43.65;100009.44;5059032;28;43800;-84
2024/01/08 11:58:18;;;;;;;8.90;5.27;;;;;;;6.72;39.81;100031.47;5090758;28;40558;-81
2024/01/08 12:00:46;;;;;;;8.67;5.40;;;;;;;7.86;37.94;100043.81;5075230;28;42024;-83
2024/01/08 12:03:39;;;;;;;7.07;5.33;;;;;;;8.24;36.75;100021.44;5058780;28;42346;-87
2024/01/08 12:06:27;;;;;;;7.30;5.63;;;;;;;8.03;36.58;100024.81;5058040;28;41123;-86
2024/01/08 12:08:55;;;;;;;6.90;4.77;;;;;;;8.69;37.02;100049.78;5058795;28;38620;-87
2024/01/08 12:11:26;;;;;;;8.23;5.47;;;;;;;8.05;36.04;100062.53;5059024;28;40734;-85
2024/01/08 12:13:56;;;;;;;6.23;5.03;;;;;;;7.66;37.12;100024.28;5058492;28;42014;-85
2024/01/08 12:17:03;;;;;;;7.43;5.33;;;;;;;8.05;36.42;100041.41;5058909;28;41187;-85
2024/01/08 12:20:12;;;;;;;7.30;5.20;;;;;;;8.65;36.06;100029.72;5058497;28;39120;-88
2024/01/08 12:22:43;;;;;;;6.70;5.13;;;;;;;9.06;36.88;100045.81;5042065;28;42614;-88
2024/01/08 12:27:52;;;;;;;9.20;4.90;;;;;;;11.31;33.34;100073.47;5058001;28;42098;-84
2024/01/08 12:30:20;;;;;;;7.77;6.00;;;;;;;13.20;32.51;100041.81;5057853;28;40530;-86
2024/01/08 12:32:47;;;;;;;7.50;5.40;;;;;;;14.64;29.57;100053.94;5055465;28;41796;-85
2024/01/08 12:35:17;;;;;;;7.70;5.47;;;;;;;16.31;28.97;100073.63;5057897;28;41862;-87
2024/01/08 12:38:08;;;;;;;6.03;4.97;;;;;;;17.74;26.59;100087.75;5041626;28;41599;-87
2024/01/08 12:40:35;;;;;;;7.30;5.70;;;;;;;17.88;24.48;100076.88;5057730;28;39218;-87
2024/01/08 12:45:46;;;;;;;6.83;5.20;;;;;;;17.41;25.56;100030.25;5057292;28;43013;-88
2024/01/08 12:48:17;;;;;;;7.90;5.90;;;;;;;17.13;23.45;100095.63;5058279;28;42189;-85
2024/01/08 12:51:05;;;;;;;7.00;5.77;;;;;;;17.08;23.71;100070.97;5057708;28;39532;-88
2024/01/08 12:56:27;;;;;;;6.60;5.30;;;;;;;17.17;24.17;100042.72;5074751;28;42992;-86
2024/01/08 12:58:57;;;;;;;6.10;5.00;;;;;;;16.34;27.03;100058.22;5054800;28;42735;-88
2024/01/08 13:01:45;;;;;;;7.07;5.60;;;;;;;14.55;26.31;100049.16;5074466;28;39246;-85
2024/01/08 13:04:32;;;;;;;6.53;5.00;;;;;;;13.01;27.03;100064.09;5057875;28;41553;-86
2024/01/08 13:10:02;;;;;;;7.07;5.43;;;;;;;9.34;29.69;99998.91;5056796;28;41605;-87
2024/01/08 13:12:31;;;;;;;7.33;5.30;;;;;;;8.60;30.99;99949.78;5058100;28;39134;-87
2024/01/08 13:14:59;;;;;;;7.10;5.30;;;;;;;8.67;31.76;100027.84;5074280;28;41306;-86
2024/01/08 13:17:27;;;;;;;8.20;5.37;;;;;;;7.83;32.91;100009.63;5065941;28;41561;-87
2024/01/08 13:23:37;;;;;;;8.50;5.37;;;;;;;5.75;35.99;99960.41;5018373;28;40128;-88
2024/01/08 13:26:06;;;;;;;9.67;6.10;;;;;;;5.11;37.21;99954.06;5024518;28;41598;-87
2024/01/08 13:28:35;;;;;;;8.50;6.00;;;;;;;5.04;37.75;100000.63;5038118;28;42657;-89
2024/01/08 13:31:04;;;;;;;9.43;5.93;;;;;;;4.30;38.65;99989.03;5037590;28;41861;-84
2024/01/08 13:33:32;;;;;;;10.40;6.10;;;;;;;4.01;40.11;99980.84;5038265;28;39202;-81
2024/01/08 13:36:19;;;;;;;9.47;5.80;;;;;;;3.47;40.52;99980.88;5037454;28;41073;-80
2024/01/08 13:38:46;;;;;;;8.67;5.93;;;;;;;3.15;41.42;99997.94;5054341;28;41786;-81
2024/01/08 13:41:14;;;;;;;9.43;5.63;;;;;;;2.76;42.07;99975.78;5053844;28;42243;-81
2024/01/08 13:43:43;;;;;;;11.43;6.10;;;;;;;2.59;43.14;99985.63;5072445;28;40079;-83
2024/01/08 13:46:11;;;;;;;11.20;6.60;;;;;;;2.34;43.42;99990.28;5036932;28;40928;-83
2024/01/08 13:48:39;;;;;;;9.40;5.83;;;;;;;2.09;44.00;99986.19;5054713;28;43170;-80
2024/01/08 13:51:09;;;;;;;7.23;5.60;;;;;;;1.67;44.35;99967.41;5072588;28;42249;-82
2024/01/08 13:53:37;;;;;;;8.70;5.90;;;;;;;1.67;44.95;99979.59;5046874;28;40206;-84
2024/01/08 13:56:05;;;;;;;9.27;5.93;;;;;;;1.65;45.31;99981.38;5072271;28;41794;-80
2024/01/08 13:58:55;;;;;;;8.47;5.77;;;;;;;1.44;45.51;99956.31;5029199;28;43306;-83
2024/01/08 14:01:23;;;;;;;10.10;5.73;;;;;;;1.10;45.62;99926.16;5037366;28;41309;-88
2024/01/08 14:06:52;;;;;;;9.67;6.07;;;;;;;1.05;46.65;99974.00;5030576;28;42307;-83
2024/01/08 14:10:00;;;;;;;7.37;5.87;;;;;;;0.89;47.02;99967.13;5072419;28;44005;-83
2024/01/08 14:12:28;;;;;;;9.87;5.77;;;;;;;0.89;47.31;99987.13;5056200;28;42093;-83
2024/01/08 14:15:17;;;;;;;8.30;5.57;;;;;;;0.58;48.43;99982.06;5057043;28;40141;-83
2024/01/08 14:17:45;;;;;;;8.97;5.97;;;;;;;0.48;48.19;99958.66;5053878;28;40777;-82
2024/01/08 14:20:13;;;;;;;8.53;5.37;;;;;;;0.42;48.82;99958.66;5073351;28;42143;-82
2024/01/08 14:23:20;;;;;;;8.87;5.20;;;;;;;0.18;49.01;99929.25;5056573;28;44191;-83
2024/01/08 14:25:48;;;;;;;9.47;5.83;;;;;;;0.49;49.01;99955.19;5056977;28;41320;-84
2024/01/08 14:39:09;;;;;;;8.00;4.67;;;;;;;0.45;49.34;99962.13;5036402;28;38743;-86
2024/01/08 14:41:56;;;;;;;9.10;5.40;;;;;;;0.20;49.33;99969.19;5036549;28;42881;-87
2024/01/08 14:47:47;;;;;;;9.50;4.70;;;;;;;0.03;50.38;99976.16;5076343;28;41378;-86
2024/01/08 14:50:15;;;;;;;8.67;5.43;;;;;;;0.02;50.61;99982.22;5076230;28;40899;-84
2024/01/08 14:52:42;;;;;;;9.33;6.13;;;;;;;-0.09;50.41;99976.19;5077085;28;40793;-86
2024/01/08 14:55:11;;;;;;;9.13;6.33;;;;;;;-0.16;50.63;99993.56;5076587;28;42575;-86
2024/01/08 14:57:59;;;;;;;9.50;5.37;;;;;;;-0.62;51.18;99919.88;5076746;28;42147;-83
2024/01/08 15:01:05;;;;;;;8.73;5.87;;;;;;;-0.36;51.67;99975.34;5093284;28;39311;-84
2024/01/08 15:03:33;;;;;;;8.83;5.23;;;;;;;-0.64;51.63;99950.22;5068531;28;43372;-82
2024/01/08 15:06:00;;;;;;;9.93;5.50;;;;;;;-0.69;51.99;99943.28;5112129;28;42732;-84
2024/01/08 15:08:30;;;;;;;10.43;5.50;;;;;;;-0.79;52.82;99969.28;5076743;28;41509;-86
2024/01/08 15:11:04;;;;;;;11.77;6.37;;;;;;;-0.87;52.56;99962.34;5070541;28;40243;-82
2024/01/08 15:16:33;;;;;;;10.27;5.60;;;;;;;-1.37;53.59;99902.47;5074564;28;42202;-83
2024/01/08 15:19:21;;;;;;;9.57;5.40;;;;;;;-1.31;53.79;99955.31;5062095;28;41422;-83
2024/01/08 15:21:51;;;;;;;11.07;5.57;;;;;;;-1.19;53.76;99981.34;5042938;28;40218;-85
